Time;durP1;ratioP1;P1;durP2;ratioP2;P2;SDS_P1;SDS_P2;PMS_P1;PMS_P2;Temp;Humidity;BMP_temperature;BMP_pressure;BME280_temperature;BME280_humidity;BME280_pressure;Samples;Min_cycle;Max_cycle;Signal;HPM_P1;HPM_P2
2023/07/01 00:25:56;;;;;;;5.18;1.95;;;;;;;22.32;55.60;100678.63;4931827;23;20067;-67
2023/07/01 00:28:21;;;;;;;9.63;2.25;;;;;;;22.34;55.58;100676.31;4905402;29;20064;-67
2023/07/01 00:30:47;;;;;;;4.93;1.80;;;;;;;22.35;55.66;100668.94;4890475;29;20036;-67
2023/07/01 00:33:12;;;;;;;4.63;1.95;;;;;;;22.34;55.66;100664.63;4890214;29;20058;-66
2023/07/01 00:35:38;;;;;;;4.20;1.85;;;;;;;22.35;55.60;100671.66;4873931;29;20104;-68
2023/07/01 00:41:00;;;;;;;6.85;2.22;;;;;;;22.33;55.66;100655.66;5026565;23;20047;-73
2023/07/01 00:43:27;;;;;;;5.72;1.77;;;;;;;22.36;55.70;100659.63;4887386;29;20050;-76
2023/07/01 00:45:52;;;;;;;4.25;1.50;;;;;;;22.37;55.51;100652.22;4882792;29;20043;-76
2023/07/01 00:48:24;;;;;;;5.47;1.83;;;;;;;22.38;55.76;100645.63;4878953;29;20040;-76
2023/07/01 00:50:51;;;;;;;;;;;;;;;22.37;55.76;100647.56;4880122;29;20040;-76
2023/07/01 00:53:17;;;;;;;2.67;1.60;;;;;;;22.37;55.48;100647.56;4898043;29;20025;-74
2023/07/01 00:55:42;;;;;;;2.78;1.73;;;;;;;22.38;55.53;100646.41;4862427;29;20143;-72
2023/07/01 00:58:08;;;;;;;4.70;1.90;;;;;;;22.39;55.80;100639.81;4889995;29;20095;-72
2023/07/01 01:00:34;;;;;;;6.18;1.70;;;;;;;22.39;55.63;100639.81;4900645;29;20099;-72
2023/07/01 01:03:20;;;;;;;4.57;1.63;;;;;;;22.41;55.75;100625.81;4919547;29;20029;-72
2023/07/01 01:06:01;;;;;;;3.85;2.00;;;;;;;22.40;55.78;100630.47;4889727;29;20067;-72
2023/07/01 01:08:52;;;;;;;3.63;1.65;;;;;;;22.41;55.93;100621.16;4914144;29;20036;-71
2023/07/01 01:11:20;;;;;;;2.50;1.35;;;;;;;22.40;55.76;100613.31;4895192;29;20036;-72
2023/07/01 01:13:47;;;;;;;2.78;1.30;;;;;;;22.41;55.79;100615.69;4897476;29;20351;-71
2023/07/01 01:16:14;;;;;;;3.08;1.50;;;;;;;22.41;55.77;100607.50;4872510;29;20063;-71
2023/07/01 01:18:42;;;;;;;5.78;1.92;;;;;;;22.43;55.88;100605.22;4922469;29;20039;-71
2023/07/01 01:21:12;;;;;;;3.20;1.70;;;;;;;22.42;55.86;100595.47;4879814;29;20060;-71
2023/07/01 01:27:23;;;;;;;2.42;1.70;;;;;;;22.46;55.84;100596.31;4912565;29;20118;-72
2023/07/01 01:29:49;;;;;;;5.45;1.70;;;;;;;22.48;55.89;100590.50;4893909;29;20024;-73
2023/07/01 01:32:15;;;;;;;2.10;1.48;;;;;;;22.49;55.99;100579.28;4902529;29;20127;-72
2023/07/01 01:34:41;;;;;;;7.25;1.92;;;;;;;22.49;55.87;100584.72;4896908;29;20119;-71
2023/07/01 01:37:14;;;;;;;6.40;1.85;;;;;;;22.51;56.16;100579.69;4892239;29;20051;-72
2023/07/01 01:39:46;;;;;;;7.47;1.80;;;;;;;22.51;55.90;100576.19;4908342;29;20114;-72
2023/07/01 01:42:23;;;;;;;5.13;2.08;;;;;;;22.51;56.13;100566.06;4914931;29;20059;-71
2023/07/01 01:44:53;;;;;;;4.85;1.90;;;;;;;22.51;56.09;100565.25;4899965;29;20035;-72
2023/07/01 01:47:21;;;;;;;5.38;1.80;;;;;;;22.51;55.93;100570.72;4913757;29;20546;-72
2023/07/01 01:49:55;;;;;;;5.22;1.58;;;;;;;22.50;56.00;100564.47;4905842;29;20041;-71
2023/07/01 01:52:22;;;;;;;2.70;1.70;;;;;;;22.50;56.10;100555.50;4882110;29;20269;-71
2023/07/01 01:54:50;;;;;;;4.75;2.30;;;;;;;22.51;56.16;100560.59;4903093;29;20035;-73
2023/07/01 01:57:15;;;;;;;3.33;1.60;;;;;;;22.51;56.20;100548.88;4912225;29;20092;-72
2023/07/01 01:59:43;;;;;;;3.22;1.80;;;;;;;22.51;56.02;100555.13;4883481;29;20078;-72
2023/07/01 02:02:09;;;;;;;9.73;2.15;;;;;;;22.51;56.21;100551.63;4891677;29;20036;-72
2023/07/01 02:04:35;;;;;;;4.53;1.75;;;;;;;22.52;56.06;100550.47;4895514;29;20211;-71
2023/07/01 02:07:00;;;;;;;2.25;1.63;;;;;;;22.51;56.05;100549.69;4887240;29;20139;-72
2023/07/01 02:09:28;;;;;;;3.55;2.00;;;;;;;22.52;56.33;100542.28;4875486;29;20041;-73
2023/07/01 02:11:55;;;;;;;6.85;2.33;;;;;;;22.52;55.88;100542.28;4887362;29;20072;-73
2023/07/01 02:14:21;;;;;;;4.82;2.10;;;;;;;22.43;54.95;100531.56;4858900;29;20044;-72
2023/07/01 02:16:47;;;;;;;2.78;1.48;;;;;;;22.43;55.16;100530.78;4858270;29;20050;-72
2023/07/01 02:19:13;;;;;;;2.67;1.40;;;;;;;22.45;55.42;100523.81;4872401;29;20674;-71
2023/07/01 02:21:39;;;;;;;5.47;2.08;;;;;;;22.45;55.68;100515.63;4860387;29;20044;-71
2023/07/01 02:24:05;;;;;;;2.25;1.52;;;;;;;22.46;55.81;100514.47;4874320;29;20116;-71
2023/07/01 02:26:30;;;;;;;5.03;1.98;;;;;;;22.47;55.72;100505.13;4859292;29;20040;-73
2023/07/01 02:28:56;;;;;;;2.40;1.65;;;;;;;22.48;55.80;100509.44;4884561;29;20040;-73
2023/07/01 02:31:21;;;;;;;3.85;1.70;;;;;;;22.49;55.68;100507.50;4888552;29;20048;-71
2023/07/01 02:33:51;;;;;;;3.15;2.00;;;;;;;22.50;55.91;100504.44;4873238;29;20475;-71
2023/07/01 02:36:16;;;;;;;4.63;2.05;;;;;;;22.51;55.71;100506.00;4859846;29;20267;-72
2023/07/01 02:38:42;;;;;;;4.32;2.20;;;;;;;22.51;55.85;100497.84;4853402;29;20610;-71
2023/07/01 02:41:08;;;;;;;3.55;1.90;;;;;;;22.52;55.65;100493.94;4851255;29;20087;-73
2023/07/01 02:43:35;;;;;;;2.78;1.60;;;;;;;22.52;55.70;100496.69;4861467;29;20457;-71
2023/07/01 02:46:00;;;;;;;1.70;1.40;;;;;;;22.54;55.87;100490.84;4874187;29;20048;-72
2023/07/01 02:48:26;;;;;;;2.75;1.98;;;;;;;22.53;55.96;100492.81;4854644;29;20043;-71
2023/07/01 02:50:52;;;;;;;2.55;1.77;;;;;;;22.54;55.75;100477.22;4844087;29;20059;-72
2023/07/01 02:53:19;;;;;;;3.05;1.85;;;;;;;22.54;55.97;100485.41;4857906;29;20049;-71
2023/07/01 02:55:45;;;;;;;4.00;2.17;;;;;;;22.54;55.92;100478.00;4857624;29;20055;-72
2023/07/01 02:58:11;;;;;;;2.60;1.95;;;;;;;22.54;55.74;100477.22;4851775;29;20048;-72
2023/07/01 03:00:37;;;;;;;2.60;1.60;;;;;;;22.55;55.87;100468.66;4863809;29;20037;-74
2023/07/01 03:03:06;;;;;;;5.03;1.55;;;;;;;22.55;55.96;100460.47;4843794;29;20037;-71
2023/07/01 03:05:33;;;;;;;2.00;1.77;;;;;;;22.54;56.08;100467.09;4867819;29;20037;-72
2023/07/01 03:07:59;;;;;;;1.90;1.40;;;;;;;22.54;56.00;100461.63;4884971;29;20032;-71
2023/07/01 03:10:25;;;;;;;2.28;1.67;;;;;;;22.55;55.80;100457.75;4856846;29;20115;-72
2023/07/01 03:12:51;;;;;;;2.47;1.90;;;;;;;22.55;55.78;100457.75;4878160;29;20047;-72
2023/07/01 03:15:16;;;;;;;2.05;1.50;;;;;;;22.56;56.04;100455.84;4852013;29;20194;-71
2023/07/01 03:17:42;;;;;;;2.88;1.80;;;;;;;22.56;55.81;100448.44;4836884;29;20045;-72
2023/07/01 03:20:22;;;;;;;2.20;1.52;;;;;;;22.57;55.90;100455.47;4871963;29;20227;-71
2023/07/01 03:22:50;;;;;;;3.50;1.98;;;;;;;22.57;56.08;100450.00;4860306;29;20040;-71
2023/07/01 03:25:16;;;;;;;2.15;1.25;;;;;;;22.58;55.94;100448.88;4842644;29;20037;-72
2023/07/01 03:27:43;;;;;;;1.90;1.00;;;;;;;22.58;56.01;100451.59;4847021;29;20041;-71
2023/07/01 03:30:14;;;;;;;2.80;1.60;;;;;;;22.58;56.35;100440.69;4861735;29;20152;-72
2023/07/01 03:32:42;;;;;;;2.00;1.63;;;;;;;22.60;56.17;100443.03;4858146;29;20040;-71
2023/07/01 03:35:09;;;;;;;1.73;1.60;;;;;;;22.58;56.01;100446.13;4858408;29;20033;-71
2023/07/01 03:37:39;;;;;;;3.78;1.70;;;;;;;22.60;56.48;100446.56;4871234;29;20052;-72
2023/07/01 03:40:10;;;;;;;3.10;1.33;;;;;;;22.59;56.15;100442.25;4855309;29;20858;-72
2023/07/01 03:42:42;;;;;;;2.15;1.40;;;;;;;22.60;56.05;100438.38;4856618;29;20048;-71
2023/07/01 03:45:10;;;;;;;2.45;1.45;;;;;;;22.60;56.18;100430.19;4856114;29;20067;-71
2023/07/01 03:47:41;;;;;;;1.95;1.30;;;;;;;22.61;56.25;100429.03;4857483;29;20393;-72
2023/07/01 03:50:07;;;;;;;2.88;1.70;;;;;;;22.61;56.41;100422.78;4871010;29;20043;-72
2023/07/01 03:52:37;;;;;;;5.25;1.30;;;;;;;22.62;56.20;100416.16;4884884;29;20041;-74
2023/07/01 03:55:04;;;;;;;2.78;1.55;;;;;;;22.61;56.17;100412.66;4868675;29;20753;-74
2023/07/01 03:57:29;;;;;;;2.20;1.02;;;;;;;22.59;56.24;100411.44;4886519;29;20040;-74
2023/07/01 03:59:55;;;;;;;2.85;1.42;;;;;;;22.59;56.15;100416.91;4891070;29;20088;-74
2023/07/01 04:02:21;;;;;;;1.88;1.30;;;;;;;22.57;56.48;100411.81;4890443;29;20695;-74
2023/07/01 04:04:46;;;;;;;5.60;1.60;;;;;;;22.56;56.44;100409.44;4888063;29;20084;-74
2023/07/01 04:07:12;;;;;;;2.67;1.20;;;;;;;22.55;56.19;100411.34;4887203;29;20460;-74
2023/07/01 04:09:38;;;;;;;3.35;1.52;;;;;;;22.54;56.50;100409.00;4887363;29;20084;-74
2023/07/01 04:12:04;;;;;;;2.17;1.30;;;;;;;22.54;56.41;100400.81;4888926;29;20067;-73
2023/07/01 04:14:30;;;;;;;2.05;1.40;;;;;;;22.52;56.59;100395.72;4872186;29;20078;-73
2023/07/01 04:16:55;;;;;;;1.70;1.50;;;;;;;22.52;56.48;100392.97;4875321;29;20032;-73
2023/07/01 04:19:21;;;;;;;1.73;1.30;;;;;;;22.51;56.45;100391.41;4874181;29;20041;-73
2023/07/01 04:21:48;;;;;;;2.83;1.40;;;;;;;22.51;56.41;100391.41;4890756;29;20088;-73
2023/07/01 04:24:14;;;;;;;1.75;1.33;;;;;;;22.49;56.53;100382.81;4889203;29;20085;-74
2023/07/01 04:26:41;;;;;;;2.17;1.40;;;;;;;22.50;56.24;100384.38;4889251;29;20045;-74
2023/07/01 04:29:07;;;;;;;2.28;1.13;;;;;;;22.49;56.48;100377.34;4887617;29;20113;-73
2023/07/01 04:31:33;;;;;;;2.28;1.27;;;;;;;22.49;56.58;100371.06;4883648;29;20486;-74
2023/07/01 04:33:58;;;;;;;2.38;1.33;;;;;;;22.48;56.36;100377.69;4890280;29;20167;-73
2023/07/01 04:36:24;;;;;;;1.98;1.30;;;;;;;22.47;56.25;100368.69;4885172;29;20104;-73
2023/07/01 04:38:50;;;;;;;1.58;1.30;;;;;;;22.48;56.36;100373.00;4887383;29;20037;-73
2023/07/01 04:41:15;;;;;;;2.03;1.13;;;;;;;22.47;56.43;100374.16;4888583;29;20111;-74
2023/07/01 04:43:41;;;;;;;1.83;1.02;;;;;;;22.47;56.28;100368.69;4892556;29;20032;-74
2023/07/01 04:46:07;;;;;;;2.10;1.35;;;;;;;22.47;56.42;100360.53;4873509;29;20088;-73
2023/07/01 04:48:33;;;;;;;1.85;1.45;;;;;;;22.47;56.41;100365.97;4892803;29;20052;-73
2023/07/01 04:50:58;;;;;;;2.58;1.20;;;;;;;22.46;56.15;100366.34;4891089;29;20037;-72
2023/07/01 04:53:24;;;;;;;1.92;1.23;;;;;;;22.46;56.33;100367.13;4890283;29;20119;-74
2023/07/01 04:55:50;;;;;;;2.00;1.30;;;;;;;22.45;56.26;100360.09;4892915;29;20055;-73
2023/07/01 04:58:15;;;;;;;1.67;1.20;;;;;;;22.45;56.46;100356.59;4889900;29;20038;-74
2023/07/01 05:00:42;;;;;;;2.33;1.20;;;;;;;22.44;56.29;100361.25;4891100;29;20032;-74
2023/07/01 05:03:07;;;;;;;1.90;1.05;;;;;;;22.44;56.36;100353.06;4877218;29;20634;-73
2023/07/01 05:05:33;;;;;;;2.10;1.38;;;;;;;22.45;56.52;100348.41;4881497;29;20053;-73
2023/07/01 05:07:58;;;;;;;2.05;1.20;;;;;;;22.43;56.23;100346.03;4890324;29;20492;-73
2023/07/01 05:10:24;;;;;;;2.53;1.35;;;;;;;22.42;56.40;100339.00;4855310;29;20776;-73
2023/07/01 05:12:50;;;;;;;1.60;1.25;;;;;;;22.43;56.22;100343.31;4857736;29;20498;-73
2023/07/01 05:15:16;;;;;;;2.28;1.02;;;;;;;22.43;56.31;100350.69;4868042;29;20398;-73
2023/07/01 05:17:42;;;;;;;1.58;1.10;;;;;;;22.43;56.34;100345.25;4887861;29;20049;-74
2023/07/01 05:20:10;;;;;;;1.85;1.05;;;;;;;22.42;56.29;100333.53;4871417;29;20033;-73
2023/07/01 05:22:36;;;;;;;1.95;1.20;;;;;;;22.41;56.32;100337.41;4889091;29;20048;-73
2023/07/01 05:25:03;;;;;;;3.33;1.20;;;;;;;22.41;56.34;100326.47;4876837;29;20132;-73
2023/07/01 05:27:29;;;;;;;2.78;1.30;;;;;;;22.41;56.46;100337.41;4870054;29;20067;-73
2023/07/01 05:29:54;;;;;;;2.03;1.23;;;;;;;22.41;56.49;100345.56;4871043;29;20472;-73
2023/07/01 05:32:20;;;;;;;1.02;0.80;;;;;;;22.41;56.48;100342.06;4890286;29;20116;-73
2023/07/01 05:34:46;;;;;;;2.13;1.10;;;;;;;22.41;56.46;100348.31;4884875;29;20156;-74
2023/07/01 05:37:11;;;;;;;1.50;1.20;;;;;;;22.40;56.27;100345.94;4887177;29;20033;-73
2023/07/01 05:39:38;;;;;;;1.60;1.10;;;;;;;22.39;56.29;100345.16;4890906;29;20041;-73
2023/07/01 05:42:04;;;;;;;1.48;1.35;;;;;;;22.40;56.33;100345.94;4890507;29;20050;-74
2023/07/01 05:44:29;;;;;;;1.58;1.02;;;;;;;22.40;56.13;100337.75;4887883;29;20021;-73
2023/07/01 05:46:55;;;;;;;1.80;1.40;;;;;;;22.39;56.31;100336.97;4870243;29;20047;-73
2023/07/01 05:49:21;;;;;;;2.70;1.15;;;;;;;22.39;56.43;100342.44;4883584;29;20531;-74
2023/07/01 05:51:47;;;;;;;1.60;1.27;;;;;;;22.39;56.40;100345.16;4886624;29;20123;-73
2023/07/01 05:54:13;;;;;;;1.60;1.30;;;;;;;22.39;56.43;100344.38;4888840;29;20495;-73
2023/07/01 05:56:38;;;;;;;1.58;1.10;;;;;;;22.40;56.24;100345.94;4891432;29;20047;-74
2023/07/01 05:59:04;;;;;;;1.92;1.25;;;;;;;22.38;56.23;100349.03;4885020;29;20037;-72
2023/07/01 06:01:30;;;;;;;1.42;1.08;;;;;;;22.38;56.40;100349.03;4889576;29;20100;-73
2023/07/01 06:03:56;;;;;;;1.70;1.25;;;;;;;22.38;56.34;100340.06;4889595;29;20044;-73
2023/07/01 06:06:21;;;;;;;1.20;0.93;;;;;;;22.38;56.08;100343.59;4889553;29;20088;-74
2023/07/01 06:08:48;;;;;;;2.05;1.40;;;;;;;22.38;56.34;100338.13;4873169;29;20032;-73
2023/07/01 06:11:15;;;;;;;1.40;0.95;;;;;;;22.39;56.40;100336.97;4889159;29;20724;-73
2023/07/01 06:13:45;;;;;;;1.10;0.85;;;;;;;22.37;56.41;100336.56;4870816;29;20084;-73
2023/07/01 06:16:12;;;;;;;1.70;1.30;;;;;;;22.37;56.51;100350.19;4885016;29;20043;-73
2023/07/01 06:18:38;;;;;;;1.42;1.23;;;;;;;22.37;56.28;100342.00;4890656;29;20039;-73
2023/07/01 06:21:06;;;;;;;1.67;1.27;;;;;;;22.37;56.42;100336.56;4867371;29;20036;-73
2023/07/01 06:23:36;;;;;;;1.17;0.80;;;;;;;22.38;56.18;100331.88;4884968;29;20040;-73
2023/07/01 06:26:02;;;;;;;1.40;1.10;;;;;;;22.37;56.33;100330.31;4888144;29;20029;-73
2023/07/01 06:28:28;;;;;;;1.80;1.25;;;;;;;22.37;56.42;100322.91;4881941;29;20029;-73
2023/07/01 06:30:54;;;;;;;1.95;1.30;;;;;;;22.37;56.35;100324.84;4888375;29;20096;-74
2023/07/01 06:33:19;;;;;;;1.20;0.93;;;;;;;22.36;56.21;100318.59;4893541;29;20506;-73
2023/07/01 06:35:45;;;;;;;1.95;0.90;;;;;;;22.36;56.35;100312.38;4877948;29;20049;-73
2023/07/01 06:38:11;;;;;;;1.58;1.05;;;;;;;22.36;56.37;100302.25;4889608;29;20029;-73
2023/07/01 06:40:37;;;;;;;1.50;1.08;;;;;;;22.37;56.38;100303.03;4870447;29;20051;-73
2023/07/01 06:43:03;;;;;;;1.33;1.15;;;;;;;22.36;56.36;100301.44;4880171;29;20025;-73
2023/07/01 06:45:29;;;;;;;2.22;1.10;;;;;;;22.35;56.44;100297.91;4879763;29;20041;-74
2023/07/01 06:47:57;;;;;;;2.15;1.10;;;;;;;22.35;56.44;100287.00;4889800;29;20098;-73
2023/07/01 06:50:22;;;;;;;1.55;1.20;;;;;;;22.36;56.41;100282.34;4870232;29;20059;-73
2023/07/01 06:52:48;;;;;;;1.40;1.05;;;;;;;22.35;56.32;100284.28;4894508;29;20728;-73
2023/07/01 06:55:13;;;;;;;1.20;1.05;;;;;;;22.35;56.42;100287.00;4882130;29;20043;-74
2023/07/01 06:57:40;;;;;;;1.30;0.90;;;;;;;22.35;56.32;100284.28;4895142;29;20043;-73
2023/07/01 07:00:09;;;;;;;2.00;1.90;;;;;;;22.35;56.57;100281.53;4885156;29;20104;-74
2023/07/01 07:02:35;;;;;;;1.85;1.20;;;;;;;22.35;56.54;100278.81;4893634;29;20056;-73
2023/07/01 07:05:01;;;;;;;1.30;0.98;;;;;;;22.35;56.60;100287.00;4892486;29;20123;-73
2023/07/01 07:07:26;;;;;;;1.23;0.88;;;;;;;22.35;56.39;100284.28;4875276;29;20029;-74
2023/07/01 07:09:52;;;;;;;1.17;0.90;;;;;;;22.34;56.38;100282.69;4871542;29;20039;-72
2023/07/01 07:12:17;;;;;;;1.27;0.90;;;;;;;22.35;56.35;100281.53;4871881;29;20037;-74
2023/07/01 07:14:43;;;;;;;1.40;0.95;;;;;;;22.36;56.53;100271.44;4890138;29;20041;-72
2023/07/01 07:17:08;;;;;;;1.55;1.30;;;;;;;22.34;56.66;100267.13;4886480;29;20642;-73
2023/07/01 07:19:36;;;;;;;1.35;0.80;;;;;;;22.34;56.55;100278.03;4890244;29;20094;-73
2023/07/01 07:22:02;;;;;;;1.48;1.20;;;;;;;22.36;56.61;100266.00;4886588;29;20067;-73
2023/07/01 07:24:27;;;;;;;1.30;0.95;;;;;;;22.35;56.52;100267.91;4893622;29;20123;-73
2023/07/01 07:26:55;;;;;;;2.75;1.10;;;;;;;22.35;56.43;100267.91;4891960;29;20036;-74
2023/07/01 07:29:21;;;;;;;1.20;0.90;;;;;;;22.35;56.28;100257.00;4890214;29;20574;-72
2023/07/01 07:31:47;;;;;;;1.63;0.90;;;;;;;22.34;56.51;100253.47;4872476;29;20120;-73
2023/07/01 07:34:12;;;;;;;1.60;1.08;;;;;;;22.33;56.51;100249.16;4887991;29;20072;-74
2023/07/01 07:36:38;;;;;;;1.13;0.90;;;;;;;22.34;56.55;100250.75;4894543;29;20037;-73
2023/07/01 07:39:04;;;;;;;1.42;1.10;;;;;;;22.35;56.40;100257.00;4891801;29;20108;-73
2023/07/01 07:41:29;;;;;;;1.50;1.00;;;;;;;22.34;56.44;100249.97;4874002;29;20076;-73
2023/07/01 07:43:55;;;;;;;1.40;0.90;;;;;;;22.34;56.36;100249.97;4890768;29;20037;-74
2023/07/01 07:46:21;;;;;;;1.10;1.00;;;;;;;22.34;56.63;100247.22;4891492;29;20032;-73
2023/07/01 07:48:46;;;;;;;2.05;1.27;;;;;;;22.34;56.53;100255.41;4864573;29;20040;-73
2023/07/01 07:51:12;;;;;;;1.40;1.15;;;;;;;22.34;56.58;100250.75;4888914;29;20064;-73
2023/07/01 07:53:38;;;;;;;1.45;1.10;;;;;;;22.34;56.28;100239.03;4890968;29;20044;-72
2023/07/01 07:56:04;;;;;;;1.40;1.10;;;;;;;22.34;56.55;100249.97;4892642;29;20037;-73
2023/07/01 07:58:29;;;;;;;1.20;1.00;;;;;;;22.34;56.55;100239.84;4892881;29;20135;-73
2023/07/01 08:00:55;;;;;;;1.58;1.10;;;;;;;22.34;56.36;100241.78;4891151;29;20115;-73
2023/07/01 08:03:21;;;;;;;2.10;1.10;;;;;;;22.34;56.44;100249.97;4876275;29;20065;-74
2023/07/01 08:05:49;;;;;;;1.60;0.93;;;;;;;22.33;56.48;100246.44;4891715;29;20620;-74
2023/07/01 08:08:15;;;;;;;1.10;0.80;;;;;;;22.33;56.50;100248.38;4890325;29;20108;-73
2023/07/01 08:10:45;;;;;;;1.50;1.30;;;;;;;22.33;56.63;100249.16;4859856;29;20180;-73
2023/07/01 08:13:14;;;;;;;1.98;1.10;;;;;;;22.34;56.74;100239.03;4888590;29;20112;-73
2023/07/01 08:15:42;;;;;;;1.13;0.90;;;;;;;22.33;56.56;100243.72;4890581;29;20043;-73
2023/07/01 08:18:08;;;;;;;1.80;1.50;;;;;;;22.33;56.45;100242.94;4882911;29;20064;-72
2023/07/01 08:20:34;;;;;;;1.20;1.10;;;;;;;22.34;56.48;100239.03;4890882;29;20111;-72
2023/07/01 08:23:00;;;;;;;1.42;1.33;;;;;;;22.33;56.52;100234.75;4886647;29;20033;-73
2023/07/01 08:25:25;;;;;;;1.30;1.10;;;;;;;22.33;56.70;100237.47;4885667;29;20148;-73
2023/07/01 08:27:51;;;;;;;1.23;1.00;;;;;;;22.33;56.60;100237.47;4881448;29;20088;-72
2023/07/01 08:30:17;;;;;;;1.30;0.90;;;;;;;22.33;56.78;100237.47;4889546;29;20051;-73
2023/07/01 08:32:42;;;;;;;1.25;1.00;;;;;;;22.33;56.75;100232.03;4865066;29;20044;-73
2023/07/01 08:35:08;;;;;;;1.40;1.30;;;;;;;22.33;56.49;100226.56;4875439;29;20077;-74
2023/07/01 08:37:34;;;;;;;1.50;0.90;;;;;;;22.33;56.68;100226.56;4874001;29;20114;-73
2023/07/01 08:40:00;;;;;;;1.30;0.90;;;;;;;22.33;56.55;100229.28;4890170;29;20482;-74
2023/07/01 08:42:37;;;;;;;1.25;0.98;;;;;;;22.32;56.77;100225.78;4872329;29;20101;-73
2023/07/01 08:45:04;;;;;;;1.20;1.08;;;;;;;22.32;56.72;100222.25;4873350;29;20040;-72
2023/07/01 08:47:32;;;;;;;2.40;0.90;;;;;;;22.32;56.65;100222.25;4888782;29;20043;-73
2023/07/01 08:50:03;;;;;;;1.35;1.10;;;;;;;22.32;56.72;100225.78;4888505;29;20075;-72
2023/07/01 08:52:32;;;;;;;1.40;0.85;;;;;;;22.32;56.70;100220.31;4889019;29;20503;-73
2023/07/01 08:54:57;;;;;;;1.38;0.98;;;;;;;22.32;56.85;100214.06;4874728;29;20518;-73
2023/07/01 08:57:23;;;;;;;1.25;0.98;;;;;;;22.31;56.64;100218.75;4889987;29;20032;-73
2023/07/01 08:59:50;;;;;;;1.17;0.75;;;;;;;22.31;56.70;100209.78;4892386;29;20115;-73
2023/07/01 09:02:16;;;;;;;2.10;1.25;;;;;;;22.31;56.65;100215.22;4889216;29;20100;-74
2023/07/01 09:04:41;;;;;;;2.03;0.95;;;;;;;22.32;56.53;100214.06;4888035;29;20048;-73
2023/07/01 09:07:10;;;;;;;1.10;0.95;;;;;;;22.31;56.56;100209.78;4889091;29;20108;-75
2023/07/01 09:09:38;;;;;;;1.10;0.80;;;;;;;22.32;56.53;100208.63;4880832;29;20131;-73
2023/07/01 09:12:04;;;;;;;1.35;1.05;;;;;;;22.32;56.56;100220.31;4866447;29;20523;-71
2023/07/01 09:15:01;;;;;;;1.40;1.00;;;;;;;22.31;56.80;100216.03;4886438;29;20546;-73
2023/07/01 09:17:29;;;;;;;1.10;0.85;;;;;;;22.31;56.73;100207.84;4882336;29;20037;-73
2023/07/01 09:20:05;;;;;;;1.30;1.00;;;;;;;22.31;56.57;100207.84;4891645;29;20119;-73
2023/07/01 09:22:32;;;;;;;1.23;0.82;;;;;;;22.31;56.64;100212.50;4889855;29;20115;-73
2023/07/01 09:24:58;;;;;;;1.40;0.90;;;;;;;22.30;56.62;100211.72;4891282;29;20064;-74
2023/07/01 09:27:25;;;;;;;1.20;0.90;;;;;;;22.30;56.62;100211.72;4890423;29;20122;-73
2023/07/01 09:29:52;;;;;;;1.20;0.90;;;;;;;22.30;56.64;100202.75;4891520;29;20036;-73
2023/07/01 09:32:26;;;;;;;1.35;1.15;;;;;;;22.30;56.59;100203.53;4889819;29;20028;-73
2023/07/01 09:34:57;;;;;;;1.33;1.10;;;;;;;22.30;56.70;100197.28;4888629;29;20044;-73
2023/07/01 09:37:24;;;;;;;1.63;1.00;;;;;;;22.32;56.60;100203.16;4873062;29;20178;-73
2023/07/01 09:39:50;;;;;;;1.38;0.90;;;;;;;22.30;57.03;100192.63;4887758;29;20070;-73
2023/07/01 09:42:19;;;;;;;1.42;1.30;;;;;;;22.31;56.76;100190.69;4873674;29;20071;-74
2023/07/01 09:45:05;;;;;;;1.15;0.93;;;;;;;22.31;56.77;100186.00;4886327;29;20075;-73
2023/07/01 09:47:32;;;;;;;1.10;0.90;;;;;;;22.31;56.70;100199.66;4888769;29;20073;-73
2023/07/01 09:49:58;;;;;;;1.42;1.20;;;;;;;22.30;56.63;100189.91;4886732;29;20036;-73
2023/07/01 09:52:36;;;;;;;1.08;0.80;;;;;;;22.30;56.75;100184.44;4888452;29;20037;-73
2023/07/01 09:55:03;;;;;;;1.20;0.80;;;;;;;22.30;56.71;100189.91;4888167;29;20044;-73
2023/07/01 09:57:29;;;;;;;1.33;0.90;;;;;;;22.30;56.70;100183.66;4889029;29;20441;-73
2023/07/01 09:59:56;;;;;;;1.20;0.80;;;;;;;22.30;56.80;100183.66;4870676;29;20063;-74
2023/07/01 10:02:23;;;;;;;1.20;1.05;;;;;;;22.29;56.67;100188.31;4885814;29;20037;-72
2023/07/01 10:04:50;;;;;;;1.23;0.93;;;;;;;22.30;56.80;100179.00;4891047;29;20508;-73
2023/07/01 10:07:16;;;;;;;1.30;1.00;;;;;;;22.30;56.58;100189.13;4894417;29;20112;-73
2023/07/01 10:09:44;;;;;;;1.17;0.80;;;;;;;22.30;56.78;100178.19;4893886;29;20040;-73
2023/07/01 10:12:11;;;;;;;1.50;1.23;;;;;;;22.29;56.73;100173.91;4894127;29;20048;-73
2023/07/01 10:14:38;;;;;;;1.40;0.90;;;;;;;22.29;56.64;100171.97;4885874;29;20646;-73
2023/07/01 10:17:04;;;;;;;1.40;0.85;;;;;;;22.29;56.66;100180.13;4875366;29;20029;-74
2023/07/01 10:19:34;;;;;;;1.35;1.08;;;;;;;22.29;56.72;100166.50;4893625;29;20055;-72
2023/07/01 10:22:26;;;;;;;1.00;0.80;;;;;;;22.29;56.84;100166.50;4876013;29;20056;-73
2023/07/01 10:24:57;;;;;;;1.35;0.88;;;;;;;22.29;56.78;100166.50;4873395;29;20091;-73
2023/07/01 10:27:41;;;;;;;1.40;1.15;;;;;;;22.29;56.86;100154.81;4873243;29;20044;-73
2023/07/01 10:30:09;;;;;;;1.25;0.90;;;;;;;22.29;57.03;100152.06;4891990;29;20041;-72
2023/07/01 10:32:34;;;;;;;1.40;1.00;;;;;;;22.29;56.74;100152.06;4879200;29;20107;-72
2023/07/01 10:35:03;;;;;;;1.25;1.00;;;;;;;22.29;56.78;100160.25;4893063;29;20054;-73
2023/07/01 10:37:31;;;;;;;1.38;0.90;;;;;;;22.28;56.80;100145.03;4882542;29;20036;-73
2023/07/01 10:39:59;;;;;;;1.10;0.80;;;;;;;22.29;56.71;100149.34;4873782;29;20064;-73
2023/07/01 10:42:31;;;;;;;1.27;0.90;;;;;;;22.27;56.88;100146.97;4892568;29;20097;-73
2023/07/01 10:45:12;;;;;;;1.10;0.80;;;;;;;22.28;56.68;100148.53;4876780;29;20073;-72
2023/07/01 10:47:59;;;;;;;1.42;0.93;;;;;;;22.27;56.85;100146.97;4887884;29;20142;-73
2023/07/01 10:50:25;;;;;;;1.35;1.20;;;;;;;22.28;56.72;100150.47;4875885;29;20056;-73
2023/07/01 10:52:56;;;;;;;1.25;0.90;;;;;;;22.27;56.93;100146.97;4879471;29;20115;-73
2023/07/01 10:55:46;;;;;;;1.70;1.23;;;;;;;22.28;56.90;100147.75;4875393;29;20063;-73
2023/07/01 10:58:13;;;;;;;1.60;1.50;;;;;;;22.27;56.73;100151.63;4874360;29;20468;-73
2023/07/01 11:00:39;;;;;;;2.08;1.13;;;;;;;22.27;56.84;100138.00;4887848;29;20040;-73
2023/07/01 11:03:29;;;;;;;1.50;1.00;;;;;;;22.27;56.84;100138.78;4873452;29;20052;-73
2023/07/01 11:06:10;;;;;;;1.55;1.27;;;;;;;22.26;56.94;100129.03;4871971;29;20515;-73
2023/07/01 11:08:47;;;;;;;1.58;1.02;;;;;;;22.26;56.97;100144.59;4873808;29;20040;-72
2023/07/01 11:11:24;;;;;;;1.30;0.88;;;;;;;22.27;56.98;100133.31;4888690;29;20052;-73
2023/07/01 11:13:57;;;;;;;1.35;1.00;;;;;;;22.26;56.82;100128.25;4887020;29;20061;-73
2023/07/01 11:16:23;;;;;;;1.92;0.90;;;;;;;22.26;56.85;100130.97;4891933;29;20044;-73
2023/07/01 11:18:51;;;;;;;1.80;1.10;;;;;;;22.27;56.98;100124.34;4875452;29;20036;-73
2023/07/01 11:21:22;;;;;;;1.30;1.20;;;;;;;22.27;56.86;100132.53;4891524;29;20091;-73
2023/07/01 11:24:08;;;;;;;1.20;0.90;;;;;;;22.26;56.96;100134.47;4889698;29;20029;-73
2023/07/01 11:26:37;;;;;;;1.38;0.93;;;;;;;22.26;56.76;100129.03;4892932;29;20131;-73
2023/07/01 11:29:10;;;;;;;1.20;1.00;;;;;;;22.27;56.87;100136.06;4888512;29;20040;-73
2023/07/01 11:31:39;;;;;;;1.10;0.80;;;;;;;22.27;56.76;100127.09;4891638;29;20032;-73
2023/07/01 11:34:05;;;;;;;1.52;0.77;;;;;;;22.27;56.99;100124.34;4876815;29;20099;-74
2023/07/01 11:36:42;;;;;;;2.63;1.27;;;;;;;22.28;57.13;100120.47;4888199;29;20036;-73
2023/07/01 11:39:13;;;;;;;1.90;1.40;;;;;;;22.29;57.29;100116.63;4873360;29;20056;-73
2023/07/01 11:42:03;;;;;;;1.27;1.10;;;;;;;22.29;56.87;100122.84;4894461;29;20041;-72
2023/07/01 11:44:34;;;;;;;4.47;3.53;;;;;;;22.00;59.89;100126.19;4874009;29;20171;-76
2023/07/01 11:46:59;;;;;;;4.47;3.90;;;;;;;21.62;60.81;100127.00;4872334;29;20055;-76
2023/07/01 11:49:29;;;;;;;6.30;4.22;;;;;;;21.31;61.94;100119.75;4888700;29;20033;-74
2023/07/01 11:51:58;;;;;;;4.80;4.07;;;;;;;20.97;63.16;100122.88;4891253;29;20071;-76
2023/07/01 11:54:48;;;;;;;6.88;4.47;;;;;;;20.75;64.69;100120.03;4859877;29;20280;-76
2023/07/01 11:57:15;;;;;;;4.65;3.65;;;;;;;20.52;65.01;100125.28;4885676;29;20040;-75
2023/07/01 11:59:43;;;;;;;5.15;4.40;;;;;;;20.35;65.30;100127.19;4872778;29;20052;-75